createdAt,value
2022-12-20T00:01:34.805Z,0.50
2022-12-20T00:04:05.364Z,0.40
2022-12-20T00:06:34.949Z,0.40
2022-12-20T00:09:04.292Z,0.40
2022-12-20T00:11:31.381Z,0.40
2022-12-20T00:13:59.030Z,0.40
2022-12-20T00:16:29.960Z,0.30
2022-12-20T00:19:00.199Z,0.40
2022-12-20T00:21:28.349Z,0.40
2022-12-20T00:23:56.328Z,0.40
2022-12-20T00:26:26.255Z,0.50
2022-12-20T00:28:54.068Z,0.50
2022-12-20T00:31:23.672Z,0.50
2022-12-20T00:33:52.417Z,0.50
2022-12-20T00:36:20.397Z,0.50
2022-12-20T00:38:49.242Z,0.50
2022-12-20T00:41:19.256Z,0.40
2022-12-20T00:43:46.695Z,0.50
2022-12-20T00:46:15.527Z,0.50
2022-12-20T00:48:42.861Z,0.50
2022-12-20T00:51:15.708Z,0.50
2022-12-20T00:53:43.466Z,0.50
2022-12-20T00:56:11.049Z,0.50
2022-12-20T00:58:40.342Z,0.50
2022-12-20T01:01:23.113Z,0.50
2022-12-20T01:03:50.840Z,0.40
2022-12-20T01:06:19.551Z,0.40
2022-12-20T01:08:46.916Z,0.40
2022-12-20T01:11:18.304Z,0.40
2022-12-20T01:13:47.943Z,0.40
2022-12-20T01:16:33.475Z,0.30
2022-12-20T01:19:01.211Z,0.30
2022-12-20T01:21:29.241Z,0.20
2022-12-20T01:23:56.555Z,0.20
2022-12-20T01:26:26.638Z,0.20
2022-12-20T01:28:56.558Z,0.20
2022-12-20T01:31:24.547Z,0.30
2022-12-20T01:33:52.780Z,0.30
2022-12-20T01:36:25.287Z,0.30
2022-12-20T01:38:59.448Z,0.40
2022-12-20T01:41:28.368Z,0.40
2022-12-20T01:43:58.527Z,0.40
2022-12-20T01:46:27.935Z,0.40
2022-12-20T01:49:18.852Z,0.40
2022-12-20T01:51:49.299Z,0.40
2022-12-20T01:54:24.604Z,0.40
2022-12-20T01:56:57.107Z,0.40
2022-12-20T01:59:25.794Z,0.50
2022-12-20T02:01:53.038Z,0.50
2022-12-20T02:04:20.089Z,0.60
2022-12-20T02:06:47.021Z,0.70
2022-12-20T02:09:14.412Z,0.60
2022-12-20T02:12:16.491Z,0.70
2022-12-20T02:15:15.649Z,0.70
2022-12-20T02:18:01.771Z,0.70
2022-12-20T02:21:08.695Z,0.80
2022-12-20T02:24:26.916Z,0.80
2022-12-20T02:27:26.660Z,0.70
2022-12-20T02:30:06.923Z,0.70
2022-12-20T02:32:52.955Z,0.60
2022-12-20T02:35:25.296Z,0.70
2022-12-20T02:37:58.742Z,0.60
2022-12-20T02:40:29.805Z,0.50
2022-12-20T02:43:01.636Z,0.60
2022-12-20T02:45:34.762Z,0.60
2022-12-20T02:48:08.110Z,0.50
2022-12-20T02:50:44.691Z,0.50
2022-12-20T02:53:13.190Z,0.60
2022-12-20T02:56:04.221Z,0.50
2022-12-20T02:58:39.986Z,0.40
2022-12-20T03:01:30.649Z,0.30
2022-12-20T03:03:58.933Z,0.30
2022-12-20T03:06:26.185Z,0.20
2022-12-20T03:08:53.268Z,0.10
2022-12-20T03:11:20.671Z,0.10
2022-12-20T03:13:47.826Z,0.10
2022-12-20T03:16:15.748Z,0.10
2022-12-20T03:18:45.468Z,0.10
2022-12-20T03:21:12.743Z,0.10
2022-12-20T03:23:39.735Z,0.10
2022-12-20T03:26:06.771Z,0.10
2022-12-20T03:28:33.740Z,0.10
2022-12-20T03:31:00.821Z,0.20
2022-12-20T03:33:27.810Z,0.30
2022-12-20T03:35:54.770Z,0.20
2022-12-20T03:38:21.789Z,0.20
2022-12-20T03:40:48.778Z,0.40
2022-12-20T03:43:16.118Z,0.50
2022-12-20T03:45:43.224Z,0.50
2022-12-20T03:48:10.158Z,0.50
2022-12-20T03:50:37.392Z,0.50
2022-12-20T03:53:04.698Z,0.50
2022-12-20T03:55:31.677Z,0.50
2022-12-20T03:57:58.682Z,0.40
2022-12-20T04:00:26.292Z,0.30
2022-12-20T04:02:53.360Z,0.20
2022-12-20T04:05:21.398Z,0.20
2022-12-20T04:07:48.513Z,0.10
2022-12-20T04:10:15.612Z,0.10
2022-12-20T04:12:42.566Z,0.00
2022-12-20T04:15:10.017Z,0.00
2022-12-20T04:17:36.965Z,0.00
2022-12-20T04:20:19.239Z,0.20
2022-12-20T04:22:48.351Z,0.30
2022-12-20T04:25:17.360Z,0.30
2022-12-20T04:27:44.630Z,0.50
2022-12-20T04:30:13.040Z,0.50
2022-12-20T04:32:40.032Z,0.60
2022-12-20T04:35:07.542Z,0.70
2022-12-20T04:37:34.479Z,0.70
2022-12-20T04:40:01.527Z,0.70
2022-12-20T04:42:28.523Z,0.70
2022-12-20T04:44:55.501Z,0.60
2022-12-20T04:47:22.511Z,0.60
2022-12-20T04:49:49.452Z,0.60
2022-12-20T04:52:35.907Z,0.60
2022-12-20T04:55:03.519Z,0.50
2022-12-20T04:57:30.498Z,0.50
2022-12-20T04:59:57.512Z,0.50
2022-12-20T05:02:24.639Z,0.60
2022-12-20T05:04:51.750Z,0.60
2022-12-20T05:07:18.751Z,0.70
2022-12-20T05:09:45.823Z,0.70
2022-12-20T05:12:12.804Z,0.70
2022-12-20T05:14:39.843Z,0.80
2022-12-20T05:17:06.839Z,0.70
2022-12-20T05:19:33.808Z,0.70
2022-12-20T05:22:19.405Z,0.70
2022-12-20T05:25:05.152Z,0.70
2022-12-20T05:27:32.142Z,0.80
2022-12-20T05:29:59.191Z,0.80
2022-12-20T05:32:26.176Z,0.90
2022-12-20T05:34:53.177Z,0.90
2022-12-20T05:37:20.213Z,1.00
2022-12-20T05:39:47.381Z,1.00
2022-12-20T05:42:14.526Z,1.00
2022-12-20T05:44:41.563Z,1.00
2022-12-20T05:47:09.181Z,1.00
2022-12-20T05:49:36.218Z,1.00
2022-12-20T05:52:03.674Z,1.00
2022-12-20T05:54:30.704Z,1.00
2022-12-20T05:56:57.724Z,1.00
2022-12-20T05:59:25.053Z,1.10
2022-12-20T06:01:52.251Z,1.10
2022-12-20T06:04:19.252Z,1.10
2022-12-20T06:06:46.630Z,1.10
2022-12-20T06:09:13.605Z,1.10
2022-12-20T06:11:40.919Z,1.00
2022-12-20T06:14:07.889Z,1.00
2022-12-20T06:16:36.374Z,1.00
2022-12-20T06:19:03.443Z,1.00
2022-12-20T06:21:30.464Z,1.00
2022-12-20T06:23:57.427Z,1.00
2022-12-20T06:26:24.619Z,1.00
2022-12-20T06:28:57.184Z,1.00
2022-12-20T06:31:24.402Z,1.10
2022-12-20T06:33:51.405Z,1.20
2022-12-20T06:36:18.661Z,1.20
2022-12-20T06:38:45.638Z,1.30
2022-12-20T06:41:13.011Z,1.20
2022-12-20T06:43:40.370Z,1.30
2022-12-20T06:46:07.452Z,1.30
2022-12-20T06:48:34.476Z,1.30
2022-12-20T06:51:01.479Z,1.40
2022-12-20T06:53:29.559Z,1.40
2022-12-20T06:55:56.525Z,1.40
2022-12-20T06:58:23.629Z,1.40
2022-12-20T07:00:51.899Z,1.40
2022-12-20T07:03:19.013Z,1.40
2022-12-20T07:05:51.327Z,1.40
2022-12-20T07:08:19.268Z,1.40
2022-12-20T07:10:46.841Z,1.40
2022-12-20T07:13:14.242Z,1.40
2022-12-20T07:15:42.037Z,1.30
2022-12-20T07:18:09.003Z,1.30
2022-12-20T07:20:36.657Z,1.40
2022-12-20T07:23:03.938Z,1.40
2022-12-20T07:25:30.911Z,1.50
2022-12-20T07:27:58.524Z,1.50
2022-12-20T07:30:26.207Z,1.60
2022-12-20T07:32:53.227Z,1.50
2022-12-20T07:35:20.314Z,1.60
2022-12-20T07:37:47.304Z,1.60
2022-12-20T07:40:16.298Z,1.70
2022-12-20T07:42:48.759Z,1.60
2022-12-20T07:45:16.282Z,1.70
2022-12-20T07:47:44.079Z,1.70
2022-12-20T07:50:11.947Z,1.70
2022-12-20T07:52:42.072Z,1.70
2022-12-20T07:55:10.475Z,1.80
2022-12-20T07:57:49.475Z,1.80
2022-12-20T08:00:18.909Z,1.80
2022-12-20T08:03:05.273Z,1.90
2022-12-20T08:05:34.962Z,1.90
2022-12-20T08:08:03.854Z,2.00
2022-12-20T08:10:31.682Z,2.00
2022-12-20T08:12:59.510Z,2.10
2022-12-20T08:15:28.443Z,2.20
2022-12-20T08:17:55.473Z,2.30
2022-12-20T08:20:22.494Z,2.30
2022-12-20T08:22:49.461Z,2.30
2022-12-20T08:25:16.696Z,2.30
2022-12-20T08:27:43.907Z,2.30
2022-12-20T08:30:11.533Z,2.40
2022-12-20T08:32:38.889Z,2.40
2022-12-20T08:35:06.536Z,2.40
2022-12-20T08:37:33.801Z,2.40
2022-12-20T08:40:01.006Z,2.40
2022-12-20T08:42:28.651Z,2.50
2022-12-20T08:44:57.340Z,2.60
2022-12-20T08:47:24.335Z,2.70
2022-12-20T08:49:51.551Z,2.80
2022-12-20T08:52:18.594Z,2.90
2022-12-20T08:54:46.192Z,3.00
2022-12-20T08:57:13.845Z,3.00
2022-12-20T08:59:40.967Z,3.10
2022-12-20T09:02:08.272Z,3.10
2022-12-20T09:04:35.706Z,3.20
2022-12-20T09:07:02.899Z,3.30
2022-12-20T09:09:32.120Z,3.30
2022-12-20T09:11:59.116Z,3.30
2022-12-20T09:14:26.348Z,3.30
2022-12-20T09:16:53.338Z,3.40
2022-12-20T09:19:20.376Z,3.40
2022-12-20T09:21:47.416Z,3.30
2022-12-20T09:24:14.473Z,3.30
2022-12-20T09:26:41.453Z,3.30
2022-12-20T09:29:08.407Z,3.30
2022-12-20T09:31:35.480Z,3.30
2022-12-20T09:34:02.591Z,3.30
2022-12-20T09:36:30.408Z,3.30
2022-12-20T09:38:57.608Z,3.30
2022-12-20T09:41:37.399Z,3.30
2022-12-20T09:44:27.298Z,3.20
2022-12-20T09:47:12.069Z,3.20
2022-12-20T09:49:43.134Z,3.10
2022-12-20T09:52:23.936Z,3.10
2022-12-20T09:55:24.775Z,3.10
2022-12-20T09:58:10.427Z,3.10
2022-12-20T10:00:53.827Z,3.10
2022-12-20T10:03:29.097Z,3.20
2022-12-20T10:06:00.881Z,3.20
2022-12-20T10:08:50.843Z,3.30
2022-12-20T10:11:40.908Z,3.40
2022-12-20T10:14:43.659Z,3.50
2022-12-20T10:17:17.257Z,3.60
2022-12-20T10:20:09.966Z,3.60
2022-12-20T10:22:43.586Z,3.60
2022-12-20T10:25:23.687Z,3.60
2022-12-20T10:27:57.079Z,3.60
2022-12-20T10:30:26.540Z,3.60
2022-12-20T10:32:57.771Z,3.80
2022-12-20T10:35:37.846Z,3.80
2022-12-20T10:38:12.648Z,3.90
2022-12-20T10:43:49.844Z,3.80
2022-12-20T10:46:17.141Z,3.80
2022-12-20T10:48:46.723Z,3.80
2022-12-20T10:51:20.192Z,3.80
2022-12-20T10:53:53.145Z,3.80
2022-12-20T10:56:22.938Z,3.80
2022-12-20T10:59:21.361Z,3.80
2022-12-20T11:01:49.924Z,3.80
2022-12-20T11:04:38.747Z,3.90
2022-12-20T11:07:26.007Z,3.80
2022-12-20T11:09:56.338Z,3.80
2022-12-20T11:12:23.623Z,3.80
2022-12-20T11:14:50.598Z,4.00
2022-12-20T11:17:32.598Z,4.10
2022-12-20T11:20:27.373Z,4.10
2022-12-20T11:23:06.879Z,4.30
2022-12-20T11:25:50.889Z,4.60
2022-12-20T11:28:44.901Z,4.90
2022-12-20T11:31:25.602Z,5.20
2022-12-20T11:34:18.464Z,5.30
2022-12-20T11:36:57.489Z,5.50
2022-12-20T11:39:42.972Z,5.60
2022-12-20T11:42:40.636Z,5.60
2022-12-20T11:45:40.811Z,5.50
2022-12-20T11:48:35.505Z,5.40
2022-12-20T11:51:09.610Z,5.20
2022-12-20T11:53:45.643Z,5.10
2022-12-20T11:56:23.126Z,4.80
2022-12-20T11:58:57.608Z,4.70
2022-12-20T12:01:40.955Z,4.70
2022-12-20T12:04:22.784Z,4.70
2022-12-20T12:06:59.494Z,4.60
2022-12-20T12:09:41.460Z,4.60
2022-12-20T12:12:40.628Z,4.60
2022-12-20T12:15:22.714Z,4.50
2022-12-20T12:18:09.335Z,4.40
2022-12-20T12:20:45.395Z,4.40
2022-12-20T12:23:34.721Z,4.30
2022-12-20T12:26:14.887Z,4.20
2022-12-20T12:28:41.999Z,4.20
2022-12-20T12:31:16.832Z,4.20
2022-12-20T12:34:09.340Z,4.20
2022-12-20T12:37:03.566Z,4.20
2022-12-20T12:39:45.495Z,4.20
2022-12-20T12:42:37.580Z,4.20
2022-12-20T12:45:47.792Z,4.20
2022-12-20T12:48:39.399Z,4.20
2022-12-20T12:51:07.315Z,4.20
2022-12-20T12:53:50.700Z,4.20
2022-12-20T12:56:43.390Z,4.20
2022-12-20T12:59:39.897Z,4.10
2022-12-20T13:02:16.742Z,4.00
2022-12-20T13:04:57.681Z,3.90
2022-12-20T13:07:34.008Z,3.80
2022-12-20T13:10:25.709Z,3.80
2022-12-20T13:12:52.830Z,3.70
2022-12-20T13:15:19.856Z,3.70
2022-12-20T13:17:55.697Z,3.70
2022-12-20T13:20:28.566Z,3.70
2022-12-20T13:23:11.949Z,3.70
2022-12-20T13:25:51.980Z,3.60
2022-12-20T13:28:22.811Z,3.60
2022-12-20T13:31:02.309Z,3.60
2022-12-20T13:33:47.881Z,3.60
2022-12-20T13:36:18.340Z,3.60
2022-12-20T13:39:26.692Z,3.50
2022-12-20T13:42:17.259Z,3.50
2022-12-20T13:44:47.033Z,3.50
2022-12-20T13:47:32.743Z,3.50
2022-12-20T13:50:23.259Z,3.50
2022-12-20T13:52:51.338Z,3.60
2022-12-20T13:55:33.578Z,3.60
2022-12-20T13:58:16.525Z,3.60
2022-12-20T14:00:45.259Z,3.60
2022-12-20T14:03:28.771Z,3.70
2022-12-20T14:06:04.532Z,3.70
2022-12-20T14:08:34.588Z,3.60
2022-12-20T14:11:22.867Z,3.50
2022-12-20T14:13:57.121Z,3.50
2022-12-20T14:16:26.848Z,3.50
2022-12-20T14:19:05.993Z,3.50
2022-12-20T14:21:39.807Z,3.40
2022-12-20T14:24:27.417Z,3.30
2022-12-20T14:26:54.726Z,3.30
2022-12-20T14:29:29.958Z,3.40
2022-12-20T14:31:57.380Z,3.30
2022-12-20T14:34:34.046Z,3.30
2022-12-20T14:37:36.284Z,3.30
2022-12-20T14:40:23.903Z,3.30
2022-12-20T14:42:51.365Z,3.20
2022-12-20T14:45:23.801Z,3.10
2022-12-20T14:48:15.535Z,3.10
2022-12-20T14:50:52.566Z,3.00
2022-12-20T14:53:27.881Z,2.90
2022-12-20T14:55:55.240Z,3.00
2022-12-20T14:58:29.877Z,2.90
2022-12-20T15:01:16.386Z,2.90
2022-12-20T15:03:59.921Z,2.90
2022-12-20T15:06:44.467Z,2.80
2022-12-20T15:09:11.493Z,2.80
2022-12-20T15:11:39.156Z,2.80
2022-12-20T15:14:36.577Z,2.80
2022-12-20T15:17:09.898Z,2.80
2022-12-20T15:19:42.017Z,2.80
2022-12-20T15:22:18.827Z,2.80
2022-12-20T15:24:45.724Z,2.80
2022-12-20T15:27:16.094Z,2.70
2022-12-20T15:29:43.543Z,2.70
2022-12-20T15:32:24.806Z,2.70
2022-12-20T15:34:51.859Z,2.60
2022-12-20T15:37:19.257Z,2.60
2022-12-20T15:39:46.553Z,2.80
2022-12-20T15:42:20.056Z,2.80
2022-12-20T15:44:47.696Z,2.90
2022-12-20T15:47:16.002Z,2.90
2022-12-20T15:49:49.542Z,2.80
2022-12-20T15:52:21.435Z,2.80
2022-12-20T15:54:48.623Z,2.80
2022-12-20T15:57:16.041Z,2.70
2022-12-20T16:00:01.135Z,2.70
2022-12-20T16:02:31.209Z,2.70
2022-12-20T16:04:59.237Z,2.70
2022-12-20T16:07:26.374Z,2.70
2022-12-20T16:09:54.307Z,2.80
2022-12-20T16:12:35.043Z,2.70
2022-12-20T16:15:02.046Z,2.70
2022-12-20T16:17:29.167Z,2.70
2022-12-20T16:19:56.259Z,2.80
2022-12-20T16:22:25.072Z,2.80
2022-12-20T16:24:52.305Z,2.70
2022-12-20T16:27:20.567Z,2.70
2022-12-20T16:29:47.810Z,2.60
2022-12-20T16:32:16.856Z,2.60
2022-12-20T16:34:44.395Z,2.40
2022-12-20T16:37:12.135Z,2.40
2022-12-20T16:39:39.136Z,2.30
2022-12-20T16:42:18.520Z,2.30
2022-12-20T16:44:46.245Z,2.30
2022-12-20T16:47:14.457Z,2.30
2022-12-20T16:49:51.860Z,2.30
2022-12-20T16:52:22.146Z,2.20
2022-12-20T16:54:50.162Z,2.20
2022-12-20T16:57:17.251Z,2.20
2022-12-20T16:59:44.728Z,2.20
2022-12-20T17:02:32.906Z,2.20
2022-12-20T17:05:00.571Z,2.20
2022-12-20T17:07:27.549Z,2.20
2022-12-20T17:09:54.804Z,2.20
2022-12-20T17:12:23.299Z,2.30
2022-12-20T17:14:50.307Z,2.30
2022-12-20T17:17:17.683Z,2.40
2022-12-20T17:19:45.029Z,2.40
2022-12-20T17:22:25.572Z,2.40
2022-12-20T17:24:52.718Z,2.40
2022-12-20T17:27:19.684Z,2.50
2022-12-20T17:29:46.718Z,2.50
2022-12-20T17:32:24.557Z,2.60
2022-12-20T17:34:52.973Z,2.70
2022-12-20T17:37:21.195Z,2.70
2022-12-20T17:39:48.587Z,2.70
2022-12-20T17:42:16.725Z,2.70
2022-12-20T17:44:43.851Z,2.70
2022-12-20T17:47:11.895Z,2.70
2022-12-20T17:49:39.429Z,2.70
2022-12-20T17:52:06.425Z,2.70
2022-12-20T17:54:39.709Z,2.70
2022-12-20T17:57:14.319Z,2.60
2022-12-20T17:59:41.451Z,2.70
2022-12-20T18:02:28.690Z,2.60
2022-12-20T18:04:55.888Z,2.70
2022-12-20T18:07:22.798Z,2.70
2022-12-20T18:09:50.124Z,2.60
2022-12-20T18:12:17.959Z,2.70
2022-12-20T18:14:45.329Z,2.60
2022-12-20T18:17:12.337Z,2.70
2022-12-20T18:19:40.687Z,2.60
2022-12-20T18:22:07.671Z,2.60
2022-12-20T18:24:34.803Z,2.50
2022-12-20T18:27:01.736Z,2.60
2022-12-20T18:29:29.390Z,2.60
2022-12-20T18:31:56.338Z,2.50
2022-12-20T18:34:23.508Z,2.60
2022-12-20T18:36:50.400Z,2.60
2022-12-20T18:39:17.465Z,2.50
2022-12-20T18:41:44.725Z,2.60
2022-12-20T18:44:12.088Z,2.60
2022-12-20T18:46:39.526Z,2.50
2022-12-20T18:49:06.657Z,2.50
2022-12-20T18:51:38.124Z,2.50
2022-12-20T18:54:07.373Z,2.50
2022-12-20T18:56:37.781Z,2.50
2022-12-20T18:59:11.608Z,2.60
2022-12-20T19:01:41.066Z,2.60
2022-12-20T19:04:08.613Z,2.60
2022-12-20T19:06:37.092Z,2.60
2022-12-20T19:09:06.793Z,2.70
2022-12-20T19:11:34.047Z,2.70
2022-12-20T19:14:01.380Z,2.70
2022-12-20T19:16:32.116Z,2.60
2022-12-20T19:19:01.006Z,2.60
2022-12-20T19:21:31.360Z,2.50
2022-12-20T19:24:01.779Z,2.50
2022-12-20T19:26:29.971Z,2.40
2022-12-20T19:28:58.515Z,2.40
2022-12-20T19:31:28.781Z,2.50
2022-12-20T19:33:59.356Z,2.40
2022-12-20T19:36:32.624Z,2.60
2022-12-20T19:39:01.727Z,2.50
2022-12-20T19:41:32.297Z,2.60
2022-12-20T19:43:59.969Z,2.50
2022-12-20T19:46:29.596Z,2.60
2022-12-20T19:48:58.441Z,2.60
2022-12-20T19:51:26.928Z,2.60
2022-12-20T19:53:54.723Z,2.60
2022-12-20T19:56:25.307Z,2.60
2022-12-20T19:58:53.185Z,2.60
2022-12-20T20:01:23.090Z,2.70
2022-12-20T20:03:50.306Z,2.70
2022-12-20T20:06:17.472Z,2.80
2022-12-20T20:08:45.820Z,2.80
2022-12-20T20:11:13.087Z,2.70
2022-12-20T20:13:40.383Z,2.70
2022-12-20T20:16:08.328Z,2.70
2022-12-20T20:18:37.357Z,2.70
2022-12-20T20:21:14.266Z,2.60
2022-12-20T20:23:41.606Z,2.50
2022-12-20T20:26:13.244Z,2.50
2022-12-20T20:28:44.897Z,2.50
2022-12-20T20:31:14.744Z,2.50
2022-12-20T20:33:42.742Z,2.50
2022-12-20T20:36:14.068Z,2.50
2022-12-20T20:38:41.288Z,2.50
2022-12-20T20:41:09.084Z,2.60
2022-12-20T20:43:39.273Z,2.60
2022-12-20T20:46:08.626Z,2.50
2022-12-20T20:48:36.066Z,2.50
2022-12-20T20:51:03.445Z,2.40
2022-12-20T20:53:34.011Z,2.40
2022-12-20T20:56:02.748Z,2.30
2022-12-20T20:58:29.797Z,2.30
2022-12-20T21:00:59.122Z,2.30
2022-12-20T21:03:27.529Z,2.30
2022-12-20T21:08:41.808Z,2.30
2022-12-20T21:11:09.530Z,2.30
2022-12-20T21:13:37.070Z,2.30
2022-12-20T21:16:12.702Z,2.30
2022-12-20T21:18:39.873Z,2.30
2022-12-20T21:21:11.739Z,2.30
2022-12-20T21:23:40.093Z,2.30
2022-12-20T21:26:07.874Z,2.30
2022-12-20T21:28:35.774Z,2.30
2022-12-20T21:31:05.224Z,2.30
2022-12-20T21:33:32.514Z,2.30
2022-12-20T21:36:14.410Z,2.30
2022-12-20T21:38:41.807Z,2.30
2022-12-20T21:41:12.461Z,2.30
2022-12-20T21:43:39.889Z,2.30
2022-12-20T21:46:11.368Z,2.30
2022-12-20T21:48:44.263Z,2.30
2022-12-20T21:51:14.424Z,2.40
2022-12-20T21:53:55.606Z,2.40
2022-12-20T21:56:24.112Z,2.40
2022-12-20T21:58:51.876Z,2.40
2022-12-20T22:01:21.566Z,2.40
2022-12-20T22:03:58.174Z,2.40
2022-12-20T22:06:25.815Z,2.30
2022-12-20T22:08:52.790Z,2.30
2022-12-20T22:11:19.798Z,2.30
2022-12-20T22:13:47.425Z,2.30
2022-12-20T22:16:17.827Z,2.30
2022-12-20T22:18:49.644Z,2.30
2022-12-20T22:21:17.807Z,2.30
2022-12-20T22:23:45.037Z,2.30
2022-12-20T22:26:14.801Z,2.20
2022-12-20T22:28:47.576Z,2.30
2022-12-20T22:31:15.162Z,2.20
2022-12-20T22:33:42.439Z,2.20
2022-12-20T22:36:11.395Z,2.20
2022-12-20T22:38:38.692Z,2.20
2022-12-20T22:41:17.419Z,2.20
2022-12-20T22:43:45.751Z,2.20
2022-12-20T22:46:14.311Z,2.20
2022-12-20T22:48:41.983Z,2.20
2022-12-20T22:51:16.602Z,2.30
2022-12-20T22:53:43.739Z,2.30
2022-12-20T22:56:11.647Z,2.30
2022-12-20T22:58:39.332Z,2.30
2022-12-20T23:01:08.839Z,2.30
2022-12-20T23:03:37.236Z,2.30
2022-12-20T23:06:06.104Z,2.30
2022-12-20T23:08:35.593Z,2.20
2022-12-20T23:11:22.194Z,2.30
2022-12-20T23:14:07.908Z,2.30
2022-12-20T23:16:36.846Z,2.30
2022-12-20T23:19:03.810Z,2.30
2022-12-20T23:21:49.571Z,2.30
2022-12-20T23:24:16.634Z,2.30
2022-12-20T23:26:44.018Z,2.30
2022-12-20T23:29:11.780Z,2.30
2022-12-20T23:31:38.794Z,2.30
2022-12-20T23:34:06.140Z,2.30
2022-12-20T23:36:33.539Z,2.30
2022-12-20T23:39:00.933Z,2.40
2022-12-20T23:41:28.417Z,2.30
2022-12-20T23:43:55.991Z,2.30
2022-12-20T23:46:23.304Z,2.40
2022-12-20T23:48:53.340Z,2.40
2022-12-20T23:51:20.996Z,2.30
2022-12-20T23:53:48.650Z,2.30
2022-12-20T23:56:18.264Z,2.30
2022-12-20T23:58:46.282Z,2.30
